createdAt,value
2022-09-15T03:52:53.555Z,99678.78
2022-09-15T03:55:22.014Z,99669.69
2022-09-15T03:57:48.434Z,99667.63
2022-09-15T04:00:14.988Z,99662.00
2022-09-15T04:02:41.418Z,99677.94
2022-09-15T04:05:08.264Z,99673.59
2022-09-15T04:07:34.748Z,99676.47
2022-09-15T04:10:01.220Z,99667.38
2022-09-15T04:12:29.894Z,99664.84
2022-09-15T04:14:56.310Z,99674.56
2022-09-15T04:17:22.872Z,99666.66
2022-09-15T04:19:49.411Z,99665.41
2022-09-15T04:22:17.968Z,99676.66
2022-09-15T04:24:44.724Z,99666.72
2022-09-15T04:27:11.174Z,99678.03
2022-09-15T04:29:37.635Z,99679.47
2022-09-15T04:32:04.486Z,99680.66
2022-09-15T04:34:31.033Z,99674.41
2022-09-15T04:36:57.438Z,99667.59
2022-09-15T04:39:24.157Z,99666.94
2022-09-15T04:41:50.557Z,99672.97
2022-09-15T04:44:17.118Z,99666.19
2022-09-15T04:46:43.582Z,99661.06
2022-09-15T04:49:10.102Z,99664.31
2022-09-15T04:51:36.560Z,99664.69
2022-09-15T04:54:03.071Z,99667.72
2022-09-15T04:56:29.547Z,99676.03
2022-09-15T04:59:03.481Z,99668.53
2022-09-15T05:01:33.800Z,99664.84
2022-09-15T05:04:04.107Z,99673.09
2022-09-15T05:06:31.584Z,99674.34
2022-09-15T05:08:58.546Z,99673.28
2022-09-15T05:11:26.174Z,99673.16
2022-09-15T05:13:53.271Z,99671.66
2022-09-15T05:16:26.057Z,99673.19
2022-09-15T05:18:54.289Z,99672.59
2022-09-15T05:21:22.070Z,99663.97
2022-09-15T05:23:50.286Z,99672.09
2022-09-15T05:26:23.530Z,99676.47
2022-09-15T05:28:50.227Z,99671.22
2022-09-15T05:31:35.320Z,99667.38
2022-09-15T05:34:04.343Z,99672.38
2022-09-15T05:36:31.745Z,99673.16
2022-09-15T05:38:58.470Z,99668.97
2022-09-15T05:41:26.914Z,99678.84
2022-09-15T05:43:56.824Z,99675.50
2022-09-15T05:46:26.121Z,99676.53
2022-09-15T05:48:56.521Z,99673.69
2022-09-15T05:51:23.260Z,99678.25
2022-09-15T05:53:50.840Z,99683.28
2022-09-15T05:56:18.017Z,99674.84
2022-09-15T05:58:47.430Z,99674.84
2022-09-15T06:01:22.885Z,99679.88
2022-09-15T06:03:49.809Z,99678.28
2022-09-15T06:06:17.013Z,99683.47
2022-09-15T06:08:48.278Z,99677.66
2022-09-15T06:11:16.732Z,99689.34
2022-09-15T06:13:44.220Z,99684.88
2022-09-15T06:16:16.188Z,99691.75
2022-09-15T06:18:42.698Z,99684.88
2022-09-15T06:21:20.837Z,99686.50
2022-09-15T06:23:52.075Z,99687.38
2022-09-15T06:26:19.373Z,99696.72
2022-09-15T06:28:51.488Z,99692.19
2022-09-15T06:31:18.934Z,99696.34
2022-09-15T06:33:47.532Z,99690.19
2022-09-15T06:36:15.771Z,99694.28
2022-09-15T06:38:43.388Z,99684.75
2022-09-15T06:41:10.983Z,99690.53
2022-09-15T06:43:38.015Z,99691.59
2022-09-15T06:46:09.199Z,99692.88
2022-09-15T06:48:37.263Z,99694.75
2022-09-15T06:51:04.986Z,99681.47
2022-09-15T06:53:33.175Z,99693.50
2022-09-15T06:56:09.410Z,99686.44
2022-09-15T06:58:37.492Z,99689.72
2022-09-15T07:01:09.090Z,99690.97
2022-09-15T07:03:36.002Z,99691.75
2022-09-15T07:06:03.998Z,99703.34
2022-09-15T07:08:30.623Z,99699.59
2022-09-15T07:10:57.142Z,99692.16
2022-09-15T07:13:24.155Z,99702.13
2022-09-15T07:15:55.943Z,99707.38
2022-09-15T07:18:24.018Z,99718.78
2022-09-15T07:20:51.151Z,99718.16
2022-09-15T07:23:18.664Z,99708.41
2022-09-15T07:25:45.621Z,99716.44
2022-09-15T07:28:12.403Z,99716.88
2022-09-15T07:30:39.297Z,99714.81
2022-09-15T07:33:07.020Z,99723.72
2022-09-15T07:35:33.721Z,99725.81
2022-09-15T07:38:00.689Z,99737.22
2022-09-15T07:40:28.942Z,99728.19
2022-09-15T07:42:55.989Z,99729.91
2022-09-15T07:45:23.186Z,99738.34
2022-09-15T07:47:49.681Z,99734.34
2022-09-15T07:50:16.487Z,99734.75
2022-09-15T07:52:42.914Z,99742.97
2022-09-15T07:55:10.060Z,99737.50
2022-09-15T07:57:36.569Z,99741.13
2022-09-15T08:00:04.447Z,99746.25
2022-09-15T08:02:30.940Z,99746.94
2022-09-15T08:04:58.037Z,99742.88
2022-09-15T08:07:24.988Z,99754.06
2022-09-15T08:09:51.615Z,99755.72
2022-09-15T08:12:18.023Z,99751.53
2022-09-15T08:14:44.788Z,99741.94
2022-09-15T08:17:11.767Z,99742.41
2022-09-15T08:19:38.526Z,99737.13
2022-09-15T08:22:05.603Z,99737.38
2022-09-15T08:24:32.138Z,99739.28
2022-09-15T08:26:58.653Z,99740.63
2022-09-15T08:29:25.161Z,99747.47
2022-09-15T08:31:51.616Z,99749.44
2022-09-15T08:34:18.092Z,99743.88
2022-09-15T08:36:44.513Z,99741.75
2022-09-15T08:39:11.265Z,99751.00
2022-09-15T08:41:44.386Z,99751.00
2022-09-15T08:44:29.360Z,99753.47
2022-09-15T08:47:09.932Z,99752.06
2022-09-15T08:49:55.737Z,99764.38
2022-09-15T08:52:30.821Z,99756.72
2022-09-15T08:55:00.236Z,99744.50
2022-09-15T08:57:26.996Z,99738.03
2022-09-15T08:59:54.847Z,99741.56
2022-09-15T09:02:58.327Z,99745.50
2022-09-15T09:05:53.090Z,99752.47
2022-09-15T09:08:28.605Z,99752.63
2022-09-15T09:11:01.801Z,99749.91
2022-09-15T09:13:35.710Z,99751.44
2022-09-15T09:16:20.698Z,99748.91
2022-09-15T09:19:10.392Z,99740.88
2022-09-15T09:21:44.312Z,99749.63
2022-09-15T09:24:25.578Z,99748.38
2022-09-15T09:26:55.273Z,99750.22
2022-09-15T09:29:36.550Z,99752.94
2022-09-15T09:32:04.044Z,99742.41
2022-09-15T09:35:29.634Z,99745.16
2022-09-15T09:37:56.983Z,99739.97
2022-09-15T09:40:23.649Z,99738.91
2022-09-15T09:42:50.276Z,99744.66
2022-09-15T09:45:19.570Z,99736.84
2022-09-15T09:47:49.064Z,99743.22
2022-09-15T09:50:43.568Z,99740.91
2022-09-15T09:53:32.874Z,99745.50
2022-09-15T09:56:26.702Z,99745.38
2022-09-15T09:58:54.571Z,99747.63
2022-09-15T10:01:25.634Z,99755.72
2022-09-15T10:04:17.777Z,99745.44
2022-09-15T10:06:44.820Z,99751.91
2022-09-15T10:09:19.334Z,99745.34
2022-09-15T10:11:52.437Z,99748.53
2022-09-15T10:14:20.245Z,99747.75
2022-09-15T10:17:06.103Z,99738.34
2022-09-15T10:19:36.734Z,99743.09
2022-09-15T10:22:04.795Z,99744.75
2022-09-15T10:24:38.853Z,99749.75
2022-09-15T10:27:18.221Z,99735.84
2022-09-15T10:29:45.257Z,99737.25
2022-09-15T10:32:25.533Z,99749.34
2022-09-15T10:35:02.989Z,99754.16
2022-09-15T10:37:54.034Z,99742.94
2022-09-15T10:40:20.602Z,99749.31
2022-09-15T10:42:51.713Z,99745.00
2022-09-15T10:45:29.120Z,99744.78
2022-09-15T10:48:17.491Z,99738.66
2022-09-15T10:50:55.617Z,99732.50
2022-09-15T10:53:57.697Z,99738.56
2022-09-15T10:56:46.165Z,99729.88
2022-09-15T10:59:42.081Z,99732.06
2022-09-15T11:02:53.845Z,99725.72
2022-09-15T11:05:41.261Z,99726.78
2022-09-15T11:08:35.510Z,99737.06
2022-09-15T11:11:29.467Z,99735.28
2022-09-15T11:14:30.261Z,99731.88
2022-09-15T11:17:02.583Z,99735.66
2022-09-15T11:19:48.084Z,99737.31
2022-09-15T11:22:19.741Z,99729.06
2022-09-15T11:24:59.578Z,99738.28
2022-09-15T11:27:42.833Z,99734.09
2022-09-15T11:30:21.945Z,99729.91
2022-09-15T11:33:03.283Z,99725.06
2022-09-15T11:35:50.248Z,99726.38
2022-09-15T11:38:34.245Z,99727.78
2022-09-15T11:41:41.494Z,99722.28
2022-09-15T11:44:16.754Z,99716.81
2022-09-15T11:47:02.310Z,99721.25
2022-09-15T11:49:36.841Z,99717.00
2022-09-15T11:52:07.157Z,99722.53
2022-09-15T11:55:19.365Z,99723.00
2022-09-15T11:58:03.516Z,99729.63
2022-09-15T12:00:31.655Z,99729.50
2022-09-15T12:03:13.685Z,99738.91
2022-09-15T12:05:48.529Z,99732.09
2022-09-15T12:08:21.809Z,99736.31
2022-09-15T12:10:56.630Z,99726.88
2022-09-15T12:13:25.079Z,99727.44
2022-09-15T12:15:53.452Z,99733.78
2022-09-15T12:18:39.008Z,99735.09
2022-09-15T12:21:17.063Z,99725.91
2022-09-15T12:23:54.339Z,99739.88
2022-09-15T12:26:26.259Z,99732.91
2022-09-15T12:28:57.392Z,99734.75
2022-09-15T12:31:35.755Z,99729.78
2022-09-15T12:34:22.225Z,99738.13
2022-09-15T12:36:51.383Z,99745.44
2022-09-15T12:39:26.201Z,99743.75
2022-09-15T12:42:14.857Z,99734.13
2022-09-15T12:44:52.161Z,99730.81
2022-09-15T12:47:18.742Z,99722.53
2022-09-15T12:49:48.959Z,99725.25
2022-09-15T12:52:17.287Z,99724.09
2022-09-15T12:54:51.804Z,99735.81
2022-09-15T12:57:36.265Z,99728.72
2022-09-15T13:00:21.010Z,99727.16
2022-09-15T13:02:49.293Z,99734.00
2022-09-15T13:05:41.319Z,99729.72
2022-09-15T13:08:30.656Z,99732.06
2022-09-15T13:11:04.918Z,99725.59
2022-09-15T13:13:39.832Z,99723.81
2022-09-15T13:16:21.115Z,99721.59
2022-09-15T13:18:54.385Z,99726.53
2022-09-15T13:21:23.057Z,99725.25
2022-09-15T13:23:52.890Z,99723.63
2022-09-15T13:26:25.666Z,99718.22
2022-09-15T13:28:56.214Z,99721.28
2022-09-15T13:31:41.199Z,99723.22
2022-09-15T13:40:40.584Z,99705.56
2022-09-15T13:43:25.537Z,99710.19
2022-09-15T13:46:04.777Z,99716.97
2022-09-15T13:48:56.376Z,99714.41
2022-09-15T13:51:27.652Z,99711.28
2022-09-15T13:54:06.637Z,99707.84
2022-09-15T13:56:37.983Z,99711.50
2022-09-15T13:59:13.982Z,99701.06
2022-09-15T14:01:42.586Z,99698.94
2022-09-15T14:04:24.330Z,99693.63
2022-09-15T14:06:55.922Z,99695.38
2022-09-15T14:09:29.711Z,99695.16
2022-09-15T14:11:59.624Z,99681.78
2022-09-15T14:14:34.576Z,99690.19
2022-09-15T14:17:01.302Z,99686.25
2022-09-15T14:19:34.146Z,99685.44
2022-09-15T14:22:20.339Z,99685.91
2022-09-15T14:24:47.575Z,99692.28
2022-09-15T14:27:37.763Z,99691.00
2022-09-15T14:30:07.485Z,99702.78
2022-09-15T14:32:39.000Z,99694.28
2022-09-15T14:35:09.504Z,99704.53
2022-09-15T14:37:36.463Z,99690.31
2022-09-15T14:40:19.190Z,99698.25
2022-09-15T14:42:45.856Z,99691.94
2022-09-15T14:48:07.209Z,99701.50
2022-09-15T14:50:34.224Z,99699.28
2022-09-15T14:53:10.102Z,99689.31
2022-09-15T14:55:57.686Z,99679.69
2022-09-15T14:58:28.082Z,99690.41
2022-09-15T15:01:06.669Z,99689.19
2022-09-15T15:03:38.099Z,99699.28
2022-09-15T15:06:39.934Z,99695.88
2022-09-15T15:09:14.537Z,99689.47
2022-09-15T15:11:42.061Z,99700.53
2022-09-15T15:14:09.665Z,99708.81
2022-09-15T15:16:37.472Z,99702.75
2022-09-15T15:19:04.345Z,99701.72
2022-09-15T15:21:38.812Z,99712.59
2022-09-15T15:24:22.676Z,99703.22
2022-09-15T15:26:50.471Z,99705.13
2022-09-15T15:29:43.189Z,99706.47
2022-09-15T15:32:30.113Z,99701.19
2022-09-15T15:35:01.436Z,99704.56
2022-09-15T15:37:30.833Z,99709.19
2022-09-15T15:40:00.493Z,99708.22
2022-09-15T15:42:28.735Z,99729.72
2022-09-15T15:45:21.821Z,99723.84
2022-09-15T15:47:48.350Z,99735.88
2022-09-15T15:50:20.819Z,99738.09
2022-09-15T15:52:49.134Z,99736.69
2022-09-15T15:55:24.664Z,99740.41
2022-09-15T15:57:53.951Z,99744.72
2022-09-15T16:00:26.751Z,99746.63
2022-09-15T16:02:53.961Z,99746.22
2022-09-15T16:05:25.185Z,99745.78
2022-09-15T16:07:52.909Z,99748.09
2022-09-15T16:10:22.628Z,99736.66
2022-09-15T16:12:49.464Z,99743.91
2022-09-15T16:15:19.576Z,99742.84
2022-09-15T16:17:47.172Z,99746.53
2022-09-15T16:20:16.397Z,99744.91
2022-09-15T16:22:43.710Z,99741.16
2022-09-15T16:25:15.508Z,99745.78
2022-09-15T16:27:42.000Z,99741.47
2022-09-15T16:30:11.993Z,99741.72
2022-09-15T16:32:40.281Z,99737.13
2022-09-15T16:35:43.138Z,99741.16
2022-09-15T16:38:09.630Z,99748.22
2022-09-15T16:40:37.529Z,99748.47
2022-09-15T16:43:09.172Z,99745.03
2022-09-15T16:45:40.592Z,99752.00
2022-09-15T16:48:08.877Z,99749.59
2022-09-15T16:50:37.799Z,99757.31
2022-09-15T16:53:06.767Z,99754.19
2022-09-15T16:55:43.219Z,99755.41
2022-09-15T16:58:09.638Z,99753.56
2022-09-15T17:00:36.991Z,99759.09
2022-09-15T17:04:01.489Z,99751.91
2022-09-15T17:15:45.944Z,99749.59
2022-09-15T17:18:15.403Z,99753.81
2022-09-15T17:20:43.718Z,99745.72
2022-09-15T17:23:28.036Z,99746.97
2022-09-15T17:25:58.510Z,99748.81
2022-09-15T17:28:33.710Z,99757.34
2022-09-15T17:31:06.055Z,99759.63
2022-09-15T17:33:32.963Z,99760.47
2022-09-15T17:36:00.224Z,99762.97
2022-09-15T17:38:27.454Z,99766.91
2022-09-15T17:40:57.599Z,99762.34
2022-09-15T17:43:26.587Z,99756.97
2022-09-15T17:45:53.961Z,99759.25
2022-09-15T17:48:21.276Z,99761.34
2022-09-15T17:50:48.731Z,99762.16
2022-09-15T17:53:34.633Z,99765.69
2022-09-15T17:56:01.269Z,99766.09
2022-09-15T17:58:29.893Z,99766.94
2022-09-15T18:00:57.188Z,99765.06
2022-09-15T18:03:35.221Z,99766.91
2022-09-15T18:06:05.598Z,99777.31
2022-09-15T18:08:35.858Z,99772.34
2022-09-15T18:11:04.153Z,99772.34
2022-09-15T18:13:31.172Z,99770.25
2022-09-15T18:16:02.659Z,99778.16
2022-09-15T18:18:29.201Z,99781.88
2022-09-15T18:20:57.894Z,99783.56
2022-09-15T18:23:26.394Z,99774.59
2022-09-15T18:25:52.884Z,99778.34
2022-09-15T18:28:19.851Z,99778.75
2022-09-15T18:30:48.907Z,99782.69
2022-09-15T18:33:21.372Z,99786.00
2022-09-15T18:35:50.006Z,99784.94
2022-09-15T18:38:16.519Z,99797.63
2022-09-15T18:40:48.926Z,99799.00
2022-09-15T18:43:16.209Z,99800.28
2022-09-15T18:45:42.792Z,99804.22
2022-09-15T18:48:12.703Z,99800.91
2022-09-15T18:50:40.005Z,99792.66
2022-09-15T18:53:06.603Z,99791.75
2022-09-15T18:55:35.322Z,99795.09
2022-09-15T18:58:02.532Z,99798.34
2022-09-15T19:00:29.351Z,99804.44
2022-09-15T19:03:00.440Z,99800.41
2022-09-15T19:05:28.497Z,99803.00
2022-09-15T19:07:55.544Z,99796.34
2022-09-15T19:10:23.063Z,99803.22
2022-09-15T19:12:49.545Z,99810.06
2022-09-15T19:15:16.468Z,99805.06
2022-09-15T19:17:43.535Z,99806.28
2022-09-15T19:20:14.939Z,99808.16
2022-09-15T19:22:42.193Z,99802.94
2022-09-15T19:25:09.695Z,99796.97
2022-09-15T19:27:36.900Z,99797.59
2022-09-15T19:30:03.966Z,99795.91
2022-09-15T19:32:32.817Z,99800.66
2022-09-15T19:34:59.295Z,99794.47
2022-09-15T19:37:25.784Z,99797.09
2022-09-15T19:39:52.308Z,99803.19
2022-09-15T19:42:18.809Z,99797.50
2022-09-15T19:44:45.913Z,99792.94
2022-09-15T19:47:12.451Z,99800.19
2022-09-15T19:49:38.904Z,99801.66
2022-09-15T19:52:06.359Z,99801.41
2022-09-15T19:54:34.451Z,99802.03
2022-09-15T19:57:01.542Z,99805.81
2022-09-15T19:59:31.320Z,99798.16
